• Join FlightAware (Why Join?)
  • Login
  • US Flag 
02:58PM EDT


 

Airport Tracker/Info


-or-


 

Live Flight TrackerFlight Track Log ✈ SWA946 ✈ 13-Apr-2013 ✈ KMKE - KDEN

Flight Track Log - Related Links

Times and Time Zones

All times are in EDT time to prevent confusion due to time zone crossing. See the SWA946 flight status page for this flight to view local times or setup timezone preferences in your user account.

Time Position Orientation Groundspeed Altitude Reporting Facility
EDT Latitude Longitude Course Direction KTS MPH feet Rate Location/Type
06:30PM 42.9456 -88.0969 270° West 234 269 7,400  Level Chicago Center
06:31PM 42.9533 -88.2017 276° West 238 274 11,700 3,720 Climbing Chicago Center
06:32PM 42.9639 -88.3117 278° West 286 329 15,100 3,300 Climbing Chicago Center
06:33PM 42.9650 -88.4297 271° West 302 348 18,500 3,180 Climbing Chicago Center
06:35PM 42.9639 -88.5547 269° West 322 371 21,700 2,820 Climbing Chicago Center
06:36PM 42.9656 -88.6831 271° West 334 384 24,300 2,400 Climbing Chicago Center
06:37PM 42.9617 -88.8169 268° West 354 407 26,700 2,220 Climbing Chicago Center
06:38PM 42.9403 -88.9525 258° West 363 418 28,900 2,100 Climbing Chicago Center
06:39PM 42.9172 -89.0906 257° West 369 425 31,100 1,920 Climbing Chicago Center
06:40PM 42.8953 -89.2272 258° West 367 422 32,900 1,260 Climbing Chicago Center
06:41PM 42.8706 -89.3931 259° West 381 438 33,700 1,020 Climbing Chicago Center
06:42PM 42.8539 -89.5392 261° West 385 443 35,100 1,380 Climbing Chicago Center
06:43PM 42.8342 -89.6875 260° West 394 453 36,600 1,260 Climbing Chicago Center
06:44PM 42.8153 -89.8353 260° West 395 455 37,700 1,140 Climbing Chicago Center
06:45PM 42.7958 -89.9864 260° West 402 463 39,000 1,080 Climbing Chicago Center
06:46PM 42.7772 -90.1325 260° West 397 457 40,000 480 Climbing Chicago Center
06:47PM 42.7572 -90.2783 259° West 395 455 40,000  Level Chicago Center
06:48PM 42.7386 -90.4233 260° West 394 453 40,000  Level Chicago Center
06:49PM 42.7181 -90.5694 259° West 397 457 40,000  Level Chicago Center
06:50PM 42.6953 -90.7444 260° West 395 455 40,000  Level Chicago Center
06:51PM 42.6747 -90.8925 259° West 401 461 40,000  Level Chicago Center
06:52PM 42.6556 -91.0394 260° West 400 460 40,000  Level Chicago Center
06:53PM 42.6347 -91.1872 259° West 399 459 40,000  Level Chicago Center
06:54PM 42.6133 -91.3344 259° West 397 457 40,000  Level Chicago Center
06:55PM 42.5922 -91.4822 259° West 397 457 40,000  Level Chicago Center
06:56PM 42.5706 -91.6314 259° West 399 459 40,000  Level Chicago Center
06:57PM 42.5494 -91.7783 259° West 396 456 40,000  Level Chicago Center
06:58PM 42.5272 -91.9267 259° West 398 458 40,000  Level Chicago Center
06:59PM 42.5044 -92.0772 258° West 406 467 40,000  Level Chicago Center
07:00PM 42.4769 -92.2586 258° West 406 467 40,000  Level Minneapolis Center
07:01PM 42.4544 -92.4069 258° West 406 467 40,000  Level Minneapolis Center
07:02PM 42.4317 -92.5569 258° West 408 470 40,000  Level Minneapolis Center
07:03PM 42.4033 -92.7353 258° West 407 468 40,000  Level Minneapolis Center
07:04PM 42.3806 -92.8822 258° West 404 465 40,000  Level Minneapolis Center
07:05PM 42.3578 -93.0297 258° West 405 466 40,000  Level Minneapolis Center
07:06PM 42.3347 -93.1758 258° West 403 464 40,000  Level Minneapolis Center
07:07PM 42.3103 -93.3203 257° West 399 459 40,000  Level Minneapolis Center
07:08PM 42.2875 -93.4650 258° West 398 458 40,000  Level Minneapolis Center
07:09PM 42.2636 -93.6075 257° West 394 453 40,000  Level Minneapolis Center
07:10PM 42.2358 -93.7789 258° West 393 452 40,000  Level Minneapolis Center
07:11PM 42.2167 -93.8936 257° West 395 455 40,000  Level Minneapolis Center
07:13PM 42.1864 -94.0750 257° West 395 455 40,000  Level Minneapolis Center
07:14PM 42.1631 -94.2175 258° West 392 451 40,000  Level Minneapolis Center
07:15PM 42.1378 -94.3603 257° West 392 451 40,000  Level Minneapolis Center
07:16PM 42.1136 -94.5025 257° West 389 448 40,000  Level Minneapolis Center
07:17PM 42.0906 -94.6439 258° West 389 448 40,000  Level Minneapolis Center
07:18PM 42.0650 -94.7842 256° West 387 445 40,000  Level Minneapolis Center
07:19PM 42.0397 -94.9244 256° West 386 444 40,000  Level Minneapolis Center
07:20PM 42.0158 -95.0631 257° West 382 440 40,000  Level Minneapolis Center
07:21PM 41.9900 -95.2047 256° West 387 445 40,000  Level Minneapolis Center
07:22PM 41.9603 -95.3747 257° West 391 450 40,000  Level Minneapolis Center
07:23PM 41.9339 -95.5169 256° West 393 452 40,000  Level Minneapolis Center
07:24PM 41.9078 -95.6597 256° West 396 456 40,000  Level Minneapolis Center
07:25PM 41.8811 -95.8033 256° West 398 458 40,000  Level Minneapolis Center
07:26PM 41.8547 -95.9456 256° West 397 457 40,000  Level Minneapolis Center
07:27PM 41.8272 -96.0872 255° West 396 456 40,000  Level Minneapolis Center
07:28PM 41.8011 -96.2289 256° West 395 455 40,000  Level Minneapolis Center
07:29PM 41.7736 -96.3717 256° West 396 456 40,000  Level Minneapolis Center
07:30PM 41.7408 -96.5428 256° West 398 458 40,000  Level Minneapolis Center
07:31PM 41.7136 -96.6858 256° West 399 459 40,000  Level Minneapolis Center
07:32PM 41.6842 -96.8308 255° West 403 464 40,000  Level Minneapolis Center
07:33PM 41.6558 -96.9767 255° West 406 467 40,000  Level Minneapolis Center
07:34PM 41.6269 -97.1242 255° West 410 472 40,000  Level Minneapolis Center
07:35PM 41.5967 -97.2728 255° West 414 476 40,000  Level Minneapolis Center
07:36PM 41.5661 -97.4208 255° West 415 478 40,000  Level Minneapolis Center
07:37PM 41.5372 -97.5703 256° West 416 479 40,000  Level Minneapolis Center
07:38PM 41.5078 -97.7178 255° West 413 475 40,000  Level Minneapolis Center
07:39PM 41.4769 -97.8661 255° West 415 478 40,000  Level Minneapolis Center
07:40PM 41.4342 -98.0733 255° West 415 478 40,000  Level Minneapolis Center
07:41PM 41.4064 -98.2069 255° West 417 480 40,000  Level Minneapolis Center
07:42PM 41.3758 -98.3533 255° West 414 476 40,000  Level Minneapolis Center
07:43PM 41.3369 -98.5136 252° West 413 475 40,000  Level Minneapolis Center
07:44PM 41.3014 -98.6575 252° West 410 472 40,000  Level Minneapolis Center
07:45PM 41.2661 -98.8019 252° West 411 473 40,000  Level Minneapolis Center
07:46PM 41.2447 -98.8822 251° West 409 471 40,000  Level Denver Center
07:47PM 41.2114 -99.0189 252° West 407 468 40,000  Level Denver Center
07:48PM 41.1728 -99.1756 252° West 403 464 40,000  Level Denver Center
07:49PM 41.1372 -99.3128 251° West 397 457 40,000  Level Denver Center
07:50PM 41.1025 -99.4503 252° West 396 456 40,000  Level Denver Center
07:51PM 41.0675 -99.5878 251° West 394 453 40,000  Level Denver Center
07:52PM 41.0319 -99.7253 251° West 395 455 40,000  Level Denver Center
07:53PM 40.9922 -99.8800 251° West 397 457 40,000  Level Denver Center
07:54PM 40.9583 -100.0119 251° West 397 457 40,000  Level Denver Center
07:55PM 40.9228 -100.1442 250° West 398 458 40,000  Level Denver Center
07:56PM 40.8839 -100.3000 252° West 400 460 40,000  Level Denver Center
07:57PM 40.8617 -100.4367 258° West 399 459 40,000  Level Denver Center
07:58PM 40.8336 -100.5947 257° West 396 456 40,000  Level Denver Center
07:59PM 40.8058 -100.7333 255° West 397 457 40,000  Level Denver Center
08:00PM 40.7825 -100.8761 258° West 398 458 40,000  Level Denver Center
08:01PM 40.7575 -101.0119 256° West 396 456 40,000  Level Denver Center
08:02PM 40.7289 -101.1703 257° West 397 457 40,000  Level Denver Center
08:03PM 40.7044 -101.3028 256° West 389 448 40,000  Level Denver Center
08:04PM 40.6758 -101.4572 256° West 388 447 40,000  Level Denver Center
08:05PM 40.6517 -101.5886 256° West 387 445 40,000  Level Denver Center
08:06PM 40.6258 -101.7189 255° West 385 443 40,000  Level Denver Center
08:07PM 40.5981 -101.8706 256° West 381 438 40,000  Level Denver Center
08:08PM 40.5719 -102.0014 255° West 383 441 40,000  Level Denver Center
08:09PM 40.5478 -102.1294 256° West 378 435 40,000  Level Denver Center
08:10PM 40.5200 -102.2778 256° West 374 430 40,000  Level Denver Center
08:11PM 40.4931 -102.4075 255° West 380 437 40,000  Level Denver Center
08:12PM 40.4639 -102.5558 256° West 376 433 40,000  Level Denver Center
08:13PM 40.4381 -102.6861 255° West 383 441 40,000  Level Denver Center
08:14PM 40.4108 -102.8231 255° West 384 442 40,000 -1,140 Level Denver Center
08:16PM 40.3836 -102.9594 255° West 384 442 37,800 -2,520 Descending Denver Center
08:17PM 40.3572 -103.0939 256° West 379 436 34,900 -2,820 Descending Denver Center
08:18PM 40.3300 -103.2278 255° West 378 435 32,100 -2,640 Descending Denver Center
08:19PM 40.3014 -103.3603 254° West 375 432 29,600 -2,340 Descending Denver Center
08:20PM 40.2758 -103.4894 256° West 367 422 27,400 -2,220 Descending Denver Center
08:21PM 40.2489 -103.6181 255° West 363 418 25,100 -2,460 Descending Denver Center
08:22PM 40.2189 -103.7644 255° West 372 428 22,400 -1,560 Descending Denver Center
08:23PM 40.1894 -103.8814 252° West 330 380 22,000 -840 Descending Denver Center
08:24PM 40.1439 -103.9769 238° Southwest 310 357 20,700 -1,500 Descending Denver Center
08:25PM 40.1003 -104.0697 238° Southwest 296 341 19,000 -1,800 Descending Denver Center
08:26PM 40.0544 -104.1675 239° Southwest 292 336 17,100 -1,380 Descending Denver Center
08:27PM 40.0136 -104.2567 239° Southwest 286 329 16,200 -1,200 Descending Denver Center
08:28PM 39.9736 -104.3417 238° Southwest 278 320 14,700 -1,500 Descending Denver Center
08:29PM 39.9339 -104.4261 238° Southwest 275 316 13,200 -1,500 Descending Denver Center
08:30PM 39.8786 -104.4992 225° Southwest 276 318 11,700 -1,080 Descending Denver Center
08:31PM 39.8047 -104.5017 181° South 261 300 11,100 -600 Descending Denver Center
08:32PM 39.7358 -104.5031 181° South 247 284 10,500 -840 Descending Denver Center
08:33PM 39.6714 -104.5164 189° South 245 282 9,400 -1,440 Descending Denver Center
08:34PM 39.6736 -104.5975 272° West 247 284 7,600 -1,140 Descending Denver Center
08:35PM 39.7339 -104.6322 336° Northwest 225 259 7,100 -600 Descending Denver Center
08:36PM 39.7831 -104.6428 351° North 183 211 6,400 -780 Descending Denver Center
08:37PM 39.8225 -104.6425 360° North 148 170 5,600 -540 Descending Denver Center
08:38PM 39.8522 -104.6422 360° North 121 139 5,400 -240 Descending Denver Center
08:40PM 39.8500 -104.6667 North  Level FlightAware Approximate
08:47PM 39.8617 -104.6732 North  Level Estimated
08:48PM 39.8617 -104.6732 North  Level Estimated